Terminal Aerodrome Forecast
Issued by NWS Albany, NY

Home | Current Version | Previous Version | Text Only | Print | Product List | Glossary On
Versions: 1 2 3 4 5 6 7 8 9 10 11 12 13 14 15 16 17 18 19 20 21
000
FTUS41 KALY 282207 AAA
TAFPOU
TAF AMD
KPOU 282207Z 2822/2918 23010KT P6SM FEW070 SCT120
     FM290000 VRB03KT P6SM SCT120
     FM290800 00000KT 3SM BR FEW004
     FM291300 22005KT P6SM SCT040=

USA.gov is the U.S. government's official web portal to all federal, state and local government web resources and services.